Helmar, Illinois
Current Conditions -  °F | °C
As of 3:35 AM on Friday 24 Oct 2014 (Local Time) from KC09 Reporting Station
Scattered Clouds Scattered Clouds  
Wind Chill: 49°   Ceiling: Unl
Heat Index: 49°   Visibility: 10mi
Dew Point: 47°   Wind: 3mph
Humidity: 94%   Direction: 170°S
Pressure: 30.04"   Gusts: NA
Location:  41.5124°N, 88.5214°W
Report Text: KC09 240835Z AUTO 17003KT 10SM SCT045 10/09 A3004 RMK AO2 T00950086
Loading
Personal Weather Stations






























Interactive Weather Map
Tropical Storm Tracking
New forecast layout! Learn more

10-Day Weather Forecast

Advertisements
Track Severe Weather on mobile